This is the latest recevied weather packets stored in our database for station/object N5CNB. If no packets are shown the sender has not sent any weather packets the latest 10 day(s).
| Time | Temp. | Humidity | Pressure | Rain* | Wind** | Luminosity | Snow |
|---|---|---|---|---|---|---|---|
| 1777785322 | 12.22° C | 90% | 1021.9 hPa | 0 mm | - | - | - |
| 1777784424 | 12.22° C | 90% | 1021.6 hPa | 0 mm | - | - | - |
| 1777783526 | 12.22° C | 90% | 1021.7 hPa | 0 mm | - | - | - |
| 1777782625 | 12.78° C | 90% | 1021.6 hPa | 0 mm | - | - | - |
| 1777781718 | 12.78° C | 89% | 1021.6 hPa | 0 mm | - | - | - |
| 1777780822 | 12.78° C | 89% | 1021.3 hPa | 0 mm | - | - | - |
| 1777779937 | 13.33° C | 89% | 1021.2 hPa | 0 mm | - | - | - |
| 1777779008 | 13.33° C | 88% | 1021.3 hPa | 0 mm | - | - | - |
| 1777778111 | 13.89° C | 88% | 1021 hPa | 0 mm | - | - | - |
| 1777777210 | 13.89° C | 87% | 1020.7 hPa | 0 mm | - | - | - |
| 1777776306 | 14.44° C | 87% | 1020.5 hPa | 0 mm | - | - | - |
| 1777775408 | 14.44° C | 85% | 1020.6 hPa | 0 mm | - | - | - |
| 1777774509 | 15° C | 84% | 1020.6 hPa | 0 mm | - | - | - |
| 1777773611 | 15.56° C | 81% | 1020.4 hPa | 0 mm | - | - | - |
| 1777772715 | 16.11° C | 79% | 1020.3 hPa | 0 mm | - | - | - |
| 1777771804 | 17.22° C | 77% | 1020.3 hPa | 0 mm | - | - | - |
| 1777770909 | 18.33° C | 73% | 1020.1 hPa | 0 mm | - | - | - |
| 1777770011 | 20° C | 66% | 1019.8 hPa | 0 mm | - | - | - |
| 1777769110 | 21.67° C | 59% | 1019.6 hPa | 0 mm | - | - | - |
| 1777768213 | 22.22° C | 53% | 1019.6 hPa | 0 mm | - | - | - |
| 1777767304 | 22.78° C | 51% | 1019.5 hPa | 0 mm | - | - | - |
| 1777766405 | 22.78° C | 49% | 1019.5 hPa | 0 mm | - | - | - |
| 1777765512 | 22.78° C | 50% | 1019.4 hPa | 0 mm | - | - | - |
| 1777764616 | 23.33° C | 47% | 1019.3 hPa | 0 mm | - | - | - |
| 1777763718 | 23.33° C | 48% | 1019.1 hPa | 0 mm | - | - | - |
* Rain latest hour (hover to see other rain measurements)
** Current wind speed in m/s (hover to see current wind gust speed)